createdAt,value
2019-05-13T00:01:45.643Z,98196.00
2019-05-13T00:04:16.950Z,98202.00
2019-05-13T00:06:53.926Z,98186.00
2019-05-13T00:12:13.792Z,98196.00
2019-05-13T00:14:44.199Z,98189.00
2019-05-13T00:17:14.775Z,98199.00
2019-05-13T00:19:45.187Z,98203.00
2019-05-13T00:22:15.497Z,98197.00
2019-05-13T00:24:45.821Z,98191.00
2019-05-13T00:27:16.156Z,98201.00
2019-05-13T00:29:46.639Z,98197.00
2019-05-13T00:32:16.960Z,98193.00
2019-05-13T00:34:47.358Z,98194.00
2019-05-13T00:37:17.691Z,98187.00
2019-05-13T00:39:48.012Z,98198.00
2019-05-13T00:42:18.346Z,98194.00
2019-05-13T00:44:50.192Z,98196.00
2019-05-13T00:47:20.519Z,98189.00
2019-05-13T00:49:50.833Z,98192.00
2019-05-13T00:52:23.462Z,98198.00
2019-05-13T00:54:53.590Z,98199.00
2019-05-13T00:57:23.989Z,98197.00
2019-05-13T00:59:54.300Z,98194.00
2019-05-13T01:02:24.635Z,98198.00
2019-05-13T01:04:54.953Z,98193.00
2019-05-13T01:07:28.811Z,98188.00
2019-05-13T01:09:57.288Z,98193.00
2019-05-13T01:12:29.237Z,98193.00
2019-05-13T01:14:59.555Z,98183.00
2019-05-13T01:17:29.881Z,98186.00
2019-05-13T01:20:00.376Z,98183.00
2019-05-13T01:22:30.696Z,98178.00
2019-05-13T01:25:03.752Z,98177.00
2019-05-13T01:27:33.488Z,98179.00
2019-05-13T01:30:06.947Z,98167.00
2019-05-13T01:32:37.267Z,98171.00
2019-05-13T01:35:07.964Z,98162.00
2019-05-13T01:37:42.499Z,98166.00
2019-05-13T01:40:10.631Z,98161.00
2019-05-13T01:42:41.217Z,98174.00
2019-05-13T01:45:13.682Z,98177.00
2019-05-13T01:47:44.313Z,98177.00
2019-05-13T01:50:16.250Z,98173.00
2019-05-13T01:52:46.700Z,98172.00
2019-05-13T01:55:17.087Z,98181.00
2019-05-13T01:57:47.469Z,98181.00
2019-05-13T02:00:18.145Z,98191.00
2019-05-13T02:02:48.623Z,98175.00
2019-05-13T02:05:18.916Z,98174.00
2019-05-13T02:07:57.782Z,98181.00
2019-05-13T02:10:33.751Z,98186.00
2019-05-13T02:13:05.778Z,98183.00
2019-05-13T02:15:36.116Z,98185.00
2019-05-13T02:18:06.413Z,98186.00
2019-05-13T02:20:36.711Z,98197.00
2019-05-13T02:23:07.015Z,98192.00
2019-05-13T02:25:37.335Z,98188.00
2019-05-13T02:28:10.315Z,98187.00
2019-05-13T02:30:39.763Z,98194.00
2019-05-13T02:33:12.899Z,98195.00
2019-05-13T02:35:43.391Z,98197.00
2019-05-13T02:38:23.550Z,98192.00
2019-05-13T02:40:46.960Z,98191.00
2019-05-13T02:43:17.288Z,98198.00
2019-05-13T02:45:47.820Z,98197.00
2019-05-13T02:48:22.866Z,98192.00
2019-05-13T02:50:52.876Z,98199.00
2019-05-13T02:53:24.121Z,98194.00
2019-05-13T02:55:55.037Z,98194.00
2019-05-13T02:58:25.656Z,98199.00
2019-05-13T03:00:55.944Z,98196.00
2019-05-13T03:03:26.528Z,98198.00
2019-05-13T03:05:56.824Z,98191.00
2019-05-13T03:08:45.006Z,98195.00
2019-05-13T03:10:59.175Z,98195.00
2019-05-13T03:13:32.779Z,98199.00
2019-05-13T03:16:23.099Z,98201.00
2019-05-13T03:18:53.676Z,98203.00
2019-05-13T03:21:24.005Z,98204.00
2019-05-13T03:23:54.337Z,98209.00
2019-05-13T03:26:25.643Z,98196.00
2019-05-13T03:28:56.002Z,98210.00
2019-05-13T03:31:27.066Z,98201.00
2019-05-13T03:33:57.504Z,98201.00
2019-05-13T03:36:27.805Z,98210.00
2019-05-13T03:39:07.033Z,98201.00
2019-05-13T03:41:33.179Z,98202.00
2019-05-13T03:44:08.203Z,98220.00
2019-05-13T03:46:42.593Z,98218.00
2019-05-13T03:49:14.077Z,98227.00
2019-05-13T03:51:45.624Z,98222.00
2019-05-13T03:54:16.038Z,98216.00
2019-05-13T03:56:46.389Z,98227.00
2019-05-13T03:59:16.707Z,98219.00
2019-05-13T04:01:47.081Z,98225.00
2019-05-13T04:04:17.472Z,98230.00
2019-05-13T04:06:47.922Z,98230.00
2019-05-13T04:09:29.787Z,98229.00
2019-05-13T04:11:52.586Z,98242.00
2019-05-13T04:14:23.151Z,98234.00
2019-05-13T04:16:53.794Z,98242.00
2019-05-13T04:19:25.091Z,98248.00
2019-05-13T04:21:55.476Z,98243.00
2019-05-13T04:24:25.788Z,98245.00
2019-05-13T04:26:56.154Z,98252.00
2019-05-13T04:29:26.547Z,98253.00
2019-05-13T04:31:57.101Z,98265.00
2019-05-13T04:34:27.512Z,98258.00
2019-05-13T04:36:57.821Z,98260.00
2019-05-13T04:39:44.598Z,98270.00
2019-05-13T04:42:02.486Z,98258.00
2019-05-13T04:44:32.955Z,98270.00
2019-05-13T04:47:03.992Z,98272.00
2019-05-13T04:49:34.652Z,98275.00
2019-05-13T04:52:05.196Z,98274.00
2019-05-13T04:54:35.520Z,98273.00
2019-05-13T04:57:05.827Z,98283.00
2019-05-13T04:59:40.308Z,98287.00
2019-05-13T05:02:44.690Z,98292.00
2019-05-13T05:05:32.514Z,98282.00
2019-05-13T05:08:32.850Z,98288.00
2019-05-13T05:11:46.645Z,98293.00
2019-05-13T05:14:38.078Z,98289.00
2019-05-13T05:17:36.708Z,98293.00
2019-05-13T05:20:32.168Z,98301.00
2019-05-13T05:23:26.718Z,98302.00
2019-05-13T05:26:31.297Z,98298.00
2019-05-13T05:29:36.807Z,98308.00
2019-05-13T05:32:45.051Z,98305.00
2019-05-13T05:35:42.758Z,98307.00
2019-05-13T05:38:28.888Z,98314.00
2019-05-13T05:41:01.654Z,98316.00
2019-05-13T05:43:34.139Z,98306.00
2019-05-13T05:46:05.114Z,98309.00
2019-05-13T05:48:37.861Z,98312.00
2019-05-13T05:51:10.223Z,98307.00
2019-05-13T05:53:43.907Z,98321.00
2019-05-13T05:56:36.731Z,98327.00
2019-05-13T05:59:07.279Z,98317.00
2019-05-13T06:01:38.534Z,98326.00
2019-05-13T06:04:08.860Z,98316.00
2019-05-13T06:06:41.482Z,98329.00
2019-05-13T06:09:12.273Z,98325.00
2019-05-13T06:11:42.797Z,98322.00
2019-05-13T06:14:13.269Z,98324.00
2019-05-13T06:16:43.575Z,98319.00
2019-05-13T06:19:13.941Z,98328.00
2019-05-13T06:21:44.338Z,98331.00
2019-05-13T06:24:14.652Z,98329.00
2019-05-13T06:26:45.076Z,98330.00
2019-05-13T06:29:15.508Z,98330.00
2019-05-13T06:31:45.950Z,98336.00
2019-05-13T06:34:16.299Z,98323.00
2019-05-13T06:36:46.726Z,98332.00
2019-05-13T06:39:17.203Z,98333.00
2019-05-13T06:41:47.519Z,98326.00
2019-05-13T06:44:17.822Z,98325.00
2019-05-13T06:46:48.210Z,98327.00
2019-05-13T06:49:18.514Z,98333.00
2019-05-13T06:51:48.829Z,98335.00
2019-05-13T06:54:21.742Z,98335.00
2019-05-13T06:56:51.813Z,98334.00
2019-05-13T06:59:22.535Z,98342.00
2019-05-13T07:01:52.904Z,98344.00
2019-05-13T07:04:23.207Z,98332.00
2019-05-13T07:07:08.760Z,98340.00
2019-05-13T07:09:25.555Z,98333.00
2019-05-13T07:11:56.961Z,98334.00
2019-05-13T07:14:28.445Z,98336.00
2019-05-13T07:16:58.788Z,98328.00
2019-05-13T07:19:29.094Z,98337.00
2019-05-13T07:22:02.353Z,98336.00
2019-05-13T07:24:32.202Z,98335.00
2019-05-13T07:27:02.911Z,98350.00
2019-05-13T07:29:33.223Z,98341.00
2019-05-13T07:32:03.565Z,98344.00
2019-05-13T07:34:34.208Z,98333.00
2019-05-13T07:37:05.647Z,98347.00
2019-05-13T07:39:37.923Z,98339.00
2019-05-13T07:42:12.122Z,98344.00
2019-05-13T07:44:42.048Z,98347.00
2019-05-13T07:47:15.703Z,98337.00
2019-05-13T07:49:44.495Z,98342.00
2019-05-13T07:52:14.830Z,98338.00
2019-05-13T07:54:45.140Z,98350.00
2019-05-13T07:57:15.483Z,98337.00
2019-05-13T07:59:45.893Z,98338.00
2019-05-13T08:02:16.239Z,98345.00
2019-05-13T08:04:49.367Z,98344.00
2019-05-13T08:07:18.669Z,98335.00
2019-05-13T08:09:51.360Z,98335.00
2019-05-13T08:12:21.665Z,98334.00
2019-05-13T08:14:52.304Z,98350.00
2019-05-13T08:17:22.718Z,98344.00
2019-05-13T08:19:53.029Z,98345.00
2019-05-13T08:22:23.363Z,98345.00
2019-05-13T08:24:54.356Z,98343.00
2019-05-13T08:27:30.362Z,98339.00
2019-05-13T08:29:56.918Z,98334.00
2019-05-13T08:32:27.245Z,98334.00
2019-05-13T08:35:01.703Z,98335.00
2019-05-13T08:37:31.951Z,98326.00
2019-05-13T08:40:01.849Z,98334.00
2019-05-13T08:42:32.432Z,98322.00
2019-05-13T08:45:02.760Z,98326.00
2019-05-13T08:47:33.056Z,98332.00
2019-05-13T08:50:05.266Z,98338.00
2019-05-13T08:52:35.572Z,98331.00
2019-05-13T08:55:07.698Z,98328.00
2019-05-13T08:57:38.077Z,98326.00
2019-05-13T09:00:09.124Z,98327.00
2019-05-13T09:02:41.822Z,98331.00
2019-05-13T09:05:12.194Z,98325.00
2019-05-13T09:07:42.559Z,98326.00
2019-05-13T09:10:13.512Z,98335.00
2019-05-13T09:12:43.851Z,98327.00
2019-05-13T09:15:14.315Z,98325.00
2019-05-13T09:17:44.646Z,98333.00
2019-05-13T09:20:15.132Z,98323.00
2019-05-13T09:22:45.463Z,98313.00
2019-05-13T09:25:15.779Z,98313.00
2019-05-13T09:27:46.197Z,98322.00
2019-05-13T09:30:16.861Z,98316.00
2019-05-13T09:32:47.169Z,98313.00
2019-05-13T09:35:19.137Z,98327.00
2019-05-13T09:37:51.610Z,98315.00
2019-05-13T09:40:22.337Z,98318.00
2019-05-13T09:42:55.377Z,98309.00
2019-05-13T09:45:24.808Z,98311.00
2019-05-13T09:47:55.201Z,98304.00
2019-05-13T09:50:31.632Z,98303.00
2019-05-13T09:52:57.608Z,98301.00
2019-05-13T09:55:29.318Z,98313.00
2019-05-13T09:58:02.263Z,98293.00
2019-05-13T10:00:32.426Z,98296.00
2019-05-13T10:03:02.689Z,98301.00
2019-05-13T10:05:34.939Z,98309.00
2019-05-13T10:08:05.250Z,98302.00
2019-05-13T10:10:35.574Z,98301.00
2019-05-13T10:13:12.071Z,98296.00
2019-05-13T10:15:38.656Z,98313.00
2019-05-13T10:18:08.971Z,98296.00
2019-05-13T10:20:52.222Z,98297.00
2019-05-13T10:23:22.372Z,98306.00
2019-05-13T10:25:57.168Z,98292.00
2019-05-13T10:28:28.429Z,98287.00
2019-05-13T10:30:58.730Z,98297.00
2019-05-13T10:33:32.006Z,98297.00
2019-05-13T10:36:03.498Z,98296.00
2019-05-13T10:38:34.196Z,98290.00
2019-05-13T10:41:04.591Z,98289.00
2019-05-13T10:43:40.197Z,98283.00
2019-05-13T10:46:07.074Z,98284.00
2019-05-13T10:48:37.351Z,98295.00
2019-05-13T10:51:07.701Z,98294.00
2019-05-13T10:53:38.015Z,98288.00
2019-05-13T10:56:08.398Z,98280.00
2019-05-13T10:58:38.688Z,98293.00
2019-05-13T11:01:11.592Z,98286.00
2019-05-13T11:03:42.779Z,98294.00
2019-05-13T11:06:13.431Z,98283.00
2019-05-13T11:08:43.774Z,98287.00
2019-05-13T11:11:14.167Z,98286.00
2019-05-13T11:13:55.138Z,98280.00
2019-05-13T11:16:16.762Z,98278.00
2019-05-13T11:18:47.159Z,98272.00
2019-05-13T11:21:17.502Z,98267.00
2019-05-13T11:23:47.789Z,98279.00
2019-05-13T11:26:18.098Z,98278.00
2019-05-13T11:28:48.466Z,98278.00
2019-05-13T11:31:18.813Z,98271.00
2019-05-13T11:33:51.743Z,98265.00
2019-05-13T11:36:23.454Z,98272.00
2019-05-13T11:38:53.676Z,98278.00
2019-05-13T11:41:26.003Z,98270.00
2019-05-13T11:44:12.096Z,98263.00
2019-05-13T11:46:28.383Z,98263.00
2019-05-13T11:49:02.256Z,98251.00
2019-05-13T11:51:32.349Z,98254.00
2019-05-13T11:54:02.977Z,98250.00
2019-05-13T11:56:33.901Z,98262.00
2019-05-13T11:59:04.620Z,98256.00
2019-05-13T12:01:35.025Z,98258.00
2019-05-13T12:04:05.508Z,98248.00
2019-05-13T12:06:35.834Z,98244.00
2019-05-13T12:09:09.080Z,98254.00
2019-05-13T12:11:39.434Z,98253.00
2019-05-13T12:14:34.731Z,98244.00
2019-05-13T12:16:42.466Z,98239.00
2019-05-13T12:19:12.861Z,98244.00
2019-05-13T12:24:15.244Z,98238.00
2019-05-13T12:26:45.510Z,98245.00
2019-05-13T12:29:19.154Z,98237.00
2019-05-13T12:31:48.039Z,98239.00
2019-05-13T12:34:18.463Z,98235.00
2019-05-13T12:36:48.860Z,98232.00
2019-05-13T12:39:19.181Z,98228.00
2019-05-13T12:41:49.524Z,98239.00
2019-05-13T12:44:22.780Z,98237.00
2019-05-13T12:46:54.391Z,98233.00
2019-05-13T12:49:31.471Z,98214.00
2019-05-13T12:52:00.746Z,98220.00
2019-05-13T12:54:27.929Z,98220.00
2019-05-13T12:56:59.953Z,98232.00
2019-05-13T12:59:32.153Z,98228.00
2019-05-13T13:02:03.236Z,98227.00
2019-05-13T13:04:33.923Z,98211.00
2019-05-13T13:07:04.500Z,98214.00
2019-05-13T13:09:34.809Z,98216.00
2019-05-13T13:12:05.209Z,98213.00
2019-05-13T13:14:43.969Z,98211.00
2019-05-13T13:17:07.548Z,98201.00
2019-05-13T13:19:37.848Z,98212.00
2019-05-13T13:22:08.273Z,98214.00
2019-05-13T13:24:47.044Z,98221.00
2019-05-13T13:27:19.011Z,98214.00
2019-05-13T13:29:43.457Z,98209.00
2019-05-13T13:32:13.850Z,98201.00
2019-05-13T13:34:44.465Z,98208.00
2019-05-13T13:37:14.807Z,98199.00
2019-05-13T13:39:45.303Z,98209.00
2019-05-13T13:42:15.642Z,98206.00
2019-05-13T13:44:47.060Z,98203.00
2019-05-13T13:47:17.375Z,98186.00
2019-05-13T13:49:47.699Z,98189.00
2019-05-13T13:52:18.197Z,98195.00
2019-05-13T13:54:58.067Z,98186.00
2019-05-13T13:57:25.745Z,98191.00
2019-05-13T14:00:20.142Z,98194.00
2019-05-13T14:02:28.498Z,98193.00
2019-05-13T14:04:58.985Z,98191.00
2019-05-13T14:07:05.431Z,98230.00
2019-05-13T14:07:35.874Z,98184.00
2019-05-13T14:10:07.833Z,98181.00
2019-05-13T14:12:33.359Z,98182.00
2019-05-13T14:15:04.509Z,98181.00
2019-05-13T14:17:34.805Z,98185.00
2019-05-13T14:20:06.639Z,98182.00
2019-05-13T14:22:36.997Z,98174.00
2019-05-13T14:25:08.452Z,98181.00
2019-05-13T14:27:38.759Z,98170.00
2019-05-13T14:30:11.707Z,98175.00
2019-05-13T14:32:42.553Z,98173.00
2019-05-13T14:35:13.506Z,98170.00
2019-05-13T14:37:43.838Z,98161.00
2019-05-13T14:40:14.769Z,98158.00
2019-05-13T14:42:45.131Z,98164.00
2019-05-13T14:45:15.628Z,98155.00
2019-05-13T14:47:46.195Z,98159.00
2019-05-13T14:50:16.590Z,98153.00
2019-05-13T14:52:46.894Z,98150.00
2019-05-13T14:55:17.631Z,98144.00
2019-05-13T14:57:48.002Z,98155.00
2019-05-13T15:00:18.651Z,98152.00
2019-05-13T15:02:51.641Z,98151.00
2019-05-13T15:05:22.009Z,98148.00
2019-05-13T15:07:52.972Z,98154.00
2019-05-13T15:10:23.421Z,98152.00
2019-05-13T15:12:53.722Z,98154.00
2019-05-13T15:15:24.847Z,98158.00
2019-05-13T15:17:55.179Z,98152.00
2019-05-13T15:20:25.562Z,98147.00
2019-05-13T15:22:55.878Z,98153.00
2019-05-13T15:25:26.227Z,98147.00
2019-05-13T15:27:56.622Z,98143.00
2019-05-13T15:30:26.923Z,98149.00
2019-05-13T15:32:57.234Z,98140.00
2019-05-13T15:35:27.555Z,98152.00
2019-05-13T15:37:57.869Z,98153.00
2019-05-13T15:40:28.482Z,98156.00
2019-05-13T15:42:58.775Z,98151.00
2019-05-13T15:45:29.133Z,98149.00
2019-05-13T15:47:59.471Z,98156.00
2019-05-13T15:50:31.845Z,98154.00
2019-05-13T15:53:02.865Z,98146.00
2019-05-13T15:55:33.358Z,98147.00
2019-05-13T15:58:03.688Z,98149.00
2019-05-13T16:00:33.998Z,98148.00
2019-05-13T16:03:04.485Z,98141.00
2019-05-13T16:05:35.781Z,98156.00
2019-05-13T16:08:06.238Z,98141.00
2019-05-13T16:10:36.582Z,98145.00
2019-05-13T16:13:06.884Z,98133.00
2019-05-13T16:15:37.276Z,98138.00
2019-05-13T16:18:07.567Z,98137.00
2019-05-13T16:20:38.077Z,98136.00
2019-05-13T16:23:08.388Z,98138.00
2019-05-13T16:25:41.456Z,98131.00
2019-05-13T16:28:10.692Z,98134.00
2019-05-13T16:30:42.031Z,98123.00
2019-05-13T16:33:12.610Z,98126.00
2019-05-13T16:35:42.976Z,98124.00
2019-05-13T16:38:13.265Z,98123.00
2019-05-13T16:40:43.668Z,98130.00
2019-05-13T16:43:13.997Z,98125.00
2019-05-13T16:45:44.351Z,98132.00
2019-05-13T16:48:14.748Z,98133.00
2019-05-13T16:50:45.134Z,98136.00
2019-05-13T16:53:15.426Z,98126.00
2019-05-13T16:55:45.789Z,98140.00
2019-05-13T16:58:16.115Z,98132.00
2019-05-13T17:00:47.647Z,98129.00
2019-05-13T17:03:17.949Z,98134.00
2019-05-13T17:05:48.329Z,98137.00
2019-05-13T17:08:18.639Z,98137.00
2019-05-13T17:10:51.402Z,98146.00
2019-05-13T17:13:22.172Z,98140.00
2019-05-13T17:15:52.612Z,98139.00
2019-05-13T17:18:22.994Z,98139.00
2019-05-13T17:20:53.294Z,98143.00
2019-05-13T17:23:23.618Z,98139.00
2019-05-13T17:25:53.927Z,98136.00
2019-05-13T17:28:24.249Z,98141.00
2019-05-13T17:30:54.573Z,98144.00
2019-05-13T17:33:24.897Z,98144.00
2019-05-13T17:35:55.470Z,98137.00
2019-05-13T17:38:25.787Z,98147.00
2019-05-13T17:40:56.108Z,98150.00
2019-05-13T17:43:26.463Z,98160.00
2019-05-13T17:45:56.758Z,98156.00
2019-05-13T17:48:29.704Z,98155.00
2019-05-13T17:51:01.251Z,98156.00
2019-05-13T17:53:32.844Z,98165.00
2019-05-13T17:56:03.184Z,98152.00
2019-05-13T17:58:33.494Z,98157.00
2019-05-13T18:01:03.833Z,98161.00
2019-05-13T18:03:34.158Z,98169.00
2019-05-13T18:06:04.473Z,98161.00
2019-05-13T18:08:34.814Z,98173.00
2019-05-13T18:11:05.196Z,98179.00
2019-05-13T18:13:35.510Z,98174.00
2019-05-13T18:16:05.760Z,98173.00
2019-05-13T18:18:46.753Z,98175.00
2019-05-13T18:21:08.017Z,98180.00
2019-05-13T18:23:38.276Z,98179.00
2019-05-13T18:26:08.526Z,98184.00
2019-05-13T18:28:38.792Z,98189.00
2019-05-13T18:31:09.042Z,98177.00
2019-05-13T18:33:39.302Z,98185.00
2019-05-13T18:36:11.846Z,98179.00
2019-05-13T18:38:41.913Z,98183.00
2019-05-13T18:41:13.117Z,98186.00
2019-05-13T18:43:43.377Z,98187.00
2019-05-13T18:46:13.631Z,98189.00
2019-05-13T18:48:58.060Z,98190.00
2019-05-13T18:51:15.861Z,98194.00
2019-05-13T18:53:46.191Z,98198.00
2019-05-13T18:56:16.677Z,98194.00
2019-05-13T18:58:46.939Z,98202.00
2019-05-13T19:01:17.193Z,98204.00
2019-05-13T19:03:47.449Z,98206.00
2019-05-13T19:06:17.706Z,98210.00
2019-05-13T19:08:47.975Z,98211.00
2019-05-13T19:11:18.296Z,98214.00
2019-05-13T19:13:48.741Z,98216.00
2019-05-13T19:16:21.219Z,98213.00
2019-05-13T19:18:50.946Z,98214.00
2019-05-13T19:21:21.924Z,98206.00
2019-05-13T19:23:52.206Z,98212.00
2019-05-13T19:26:24.124Z,98221.00
2019-05-13T19:28:54.385Z,98217.00
2019-05-13T19:31:24.631Z,98219.00
2019-05-13T19:33:54.904Z,98225.00
2019-05-13T19:36:25.225Z,98216.00
2019-05-13T19:38:55.487Z,98219.00
2019-05-13T19:41:25.811Z,98218.00
2019-05-13T19:43:56.144Z,98220.00
2019-05-13T19:46:26.400Z,98221.00
2019-05-13T19:48:56.780Z,98227.00
2019-05-13T19:51:28.389Z,98229.00
2019-05-13T19:54:01.086Z,98224.00
2019-05-13T19:56:31.953Z,98229.00
2019-05-13T19:59:02.371Z,98217.00
2019-05-13T20:01:32.693Z,98218.00
2019-05-13T20:04:03.239Z,98211.00
2019-05-13T20:06:33.622Z,98205.00
2019-05-13T20:09:06.450Z,98222.00
2019-05-13T20:11:36.778Z,98215.00
2019-05-13T20:14:07.118Z,98211.00
2019-05-13T20:16:37.506Z,98219.00
2019-05-13T20:19:07.915Z,98216.00
2019-05-13T20:21:38.240Z,98221.00
2019-05-13T20:24:08.617Z,98223.00
2019-05-13T20:26:38.913Z,98218.00
2019-05-13T20:29:12.242Z,98220.00
2019-05-13T20:31:41.793Z,98213.00
2019-05-13T20:34:12.124Z,98219.00
2019-05-13T20:36:42.420Z,98214.00
2019-05-13T20:39:12.821Z,98217.00
2019-05-13T20:41:43.127Z,98228.00
2019-05-13T20:44:13.519Z,98222.00
2019-05-13T20:46:43.880Z,98226.00
2019-05-13T20:49:14.214Z,98229.00
2019-05-13T20:51:44.533Z,98230.00
2019-05-13T20:54:14.855Z,98225.00
2019-05-13T20:56:45.296Z,98229.00
2019-05-13T20:59:15.633Z,98231.00
2019-05-13T21:01:45.974Z,98236.00
2019-05-13T21:04:16.319Z,98218.00
2019-05-13T21:06:46.712Z,98221.00
2019-05-13T21:09:17.318Z,98222.00
2019-05-13T21:11:47.611Z,98221.00
2019-05-13T21:14:17.959Z,98231.00
2019-05-13T21:16:48.374Z,98221.00
2019-05-13T21:19:18.666Z,98221.00
2019-05-13T21:21:50.980Z,98221.00
2019-05-13T21:24:21.428Z,98217.00
2019-05-13T21:26:51.740Z,98223.00
2019-05-13T21:29:22.053Z,98218.00
2019-05-13T21:31:52.987Z,98207.00
2019-05-13T21:34:23.405Z,98209.00
2019-05-13T21:36:54.723Z,98209.00
2019-05-13T21:39:25.046Z,98204.00
2019-05-13T21:41:55.468Z,98203.00
2019-05-13T21:44:25.769Z,98199.00
2019-05-13T21:46:56.094Z,98197.00
2019-05-13T21:49:26.438Z,98197.00
2019-05-13T21:51:56.774Z,98187.00
2019-05-13T21:54:27.075Z,98190.00
2019-05-13T21:56:57.409Z,98188.00
2019-05-13T21:59:27.713Z,98197.00
2019-05-13T22:01:58.052Z,98191.00
2019-05-13T22:04:28.364Z,98187.00
2019-05-13T22:06:58.696Z,98182.00
2019-05-13T22:09:31.544Z,98189.00
2019-05-13T22:12:01.949Z,98181.00
2019-05-13T22:14:32.383Z,98180.00
2019-05-13T22:17:02.895Z,98188.00
2019-05-13T22:19:33.218Z,98179.00
2019-05-13T22:22:03.571Z,98173.00
2019-05-13T22:24:35.116Z,98176.00
2019-05-13T22:27:05.503Z,98170.00
2019-05-13T22:29:35.802Z,98175.00
2019-05-13T22:32:06.196Z,98174.00
2019-05-13T22:34:36.509Z,98175.00
2019-05-13T22:37:06.809Z,98171.00
2019-05-13T22:39:37.128Z,98168.00
2019-05-13T22:42:07.513Z,98167.00
2019-05-13T22:44:37.864Z,98158.00
2019-05-13T22:47:08.259Z,98163.00
2019-05-13T22:49:38.636Z,98156.00
2019-05-13T22:52:11.257Z,98153.00
2019-05-13T22:54:41.322Z,98154.00
2019-05-13T22:57:12.031Z,98160.00
2019-05-13T22:59:42.511Z,98156.00
2019-05-13T23:02:12.917Z,98155.00
2019-05-13T23:04:43.229Z,98154.00
2019-05-13T23:07:13.611Z,98158.00
2019-05-13T23:09:43.951Z,98148.00
2019-05-13T23:12:15.243Z,98144.00
2019-05-13T23:14:45.542Z,98146.00
2019-05-13T23:17:15.869Z,98148.00
2019-05-13T23:19:46.156Z,98147.00
2019-05-13T23:22:16.455Z,98137.00
2019-05-13T23:24:46.911Z,98138.00
2019-05-13T23:27:17.244Z,98139.00
2019-05-13T23:29:47.576Z,98128.00
2019-05-13T23:32:17.904Z,98125.00
2019-05-13T23:34:48.224Z,98118.00
2019-05-13T23:37:18.559Z,98110.00
2019-05-13T23:39:48.880Z,98105.00
2019-05-13T23:42:21.173Z,98113.00
2019-05-13T23:44:51.729Z,98110.00
2019-05-13T23:47:23.180Z,98108.00
2019-05-13T23:49:53.500Z,98106.00
2019-05-13T23:52:24.002Z,98102.00
2019-05-13T23:54:54.557Z,98102.00
2019-05-13T23:57:24.891Z,98105.00
2019-05-13T23:59:55.217Z,98098.00
